createdAt,value
2019-03-24T00:00:55.431Z,73.78
2019-03-24T00:03:23.703Z,73.91
2019-03-24T00:05:51.956Z,73.85
2019-03-24T00:08:20.163Z,73.90
2019-03-24T00:10:48.433Z,73.99
2019-03-24T00:13:16.639Z,74.16
2019-03-24T00:15:44.884Z,73.95
2019-03-24T00:18:13.080Z,73.95
2019-03-24T00:20:41.302Z,74.02
2019-03-24T00:23:09.547Z,74.16
2019-03-24T00:25:37.756Z,74.14
2019-03-24T00:28:06.000Z,74.10
2019-03-24T00:30:34.264Z,74.04
2019-03-24T00:33:02.431Z,74.19
2019-03-24T00:35:30.631Z,74.13
2019-03-24T00:37:58.856Z,74.03
2019-03-24T00:40:27.081Z,74.30
2019-03-24T00:42:55.289Z,74.28
2019-03-24T00:45:36.240Z,74.21
2019-03-24T00:47:56.145Z,74.16
2019-03-24T00:50:24.356Z,74.05
2019-03-24T00:52:52.608Z,74.16
2019-03-24T00:55:20.829Z,74.16
2019-03-24T00:57:49.039Z,74.08
2019-03-24T01:00:17.279Z,74.12
2019-03-24T01:02:45.509Z,73.94
2019-03-24T01:05:13.734Z,74.17
2019-03-24T01:07:41.960Z,74.10
2019-03-24T01:10:10.179Z,74.07
2019-03-24T01:12:38.410Z,74.04
2019-03-24T01:15:07.662Z,74.08
2019-03-24T01:17:36.559Z,73.85
2019-03-24T01:20:07.115Z,74.09
2019-03-24T01:22:35.820Z,74.05
2019-03-24T01:25:04.796Z,74.14
2019-03-24T01:27:33.010Z,74.45
2019-03-24T01:30:01.217Z,74.37
2019-03-24T01:32:29.439Z,74.53
2019-03-24T01:34:57.645Z,74.55
2019-03-24T01:37:25.865Z,74.72
2019-03-24T01:39:54.077Z,74.69
2019-03-24T01:42:22.291Z,74.75
2019-03-24T01:44:50.504Z,74.74
2019-03-24T01:47:18.718Z,74.57
2019-03-24T01:49:46.939Z,74.88
2019-03-24T01:52:15.154Z,74.87
2019-03-24T01:54:43.371Z,74.83
2019-03-24T01:57:11.599Z,74.76
2019-03-24T01:59:39.819Z,75.03
2019-03-24T02:02:08.028Z,74.92
2019-03-24T02:04:36.309Z,74.79
2019-03-24T02:07:04.478Z,74.93
2019-03-24T02:09:32.691Z,74.91
2019-03-24T02:12:00.946Z,75.02
2019-03-24T02:14:29.162Z,75.00
2019-03-24T02:16:59.214Z,74.94
2019-03-24T02:19:27.516Z,75.02
2019-03-24T02:21:55.755Z,75.03
2019-03-24T02:24:23.961Z,75.13
2019-03-24T02:26:52.179Z,75.00
2019-03-24T02:29:20.390Z,75.04
2019-03-24T02:31:48.634Z,75.08
2019-03-24T02:34:16.830Z,75.11
2019-03-24T02:36:45.410Z,75.24
2019-03-24T02:39:13.627Z,75.16
2019-03-24T02:41:41.835Z,75.21
2019-03-24T02:44:10.061Z,75.14
2019-03-24T02:46:38.265Z,75.38
2019-03-24T02:49:06.498Z,75.14
2019-03-24T02:51:34.708Z,75.33
2019-03-24T02:54:02.926Z,75.29
2019-03-24T02:56:31.121Z,75.13
2019-03-24T02:58:59.347Z,75.39
2019-03-24T03:01:27.618Z,75.37
2019-03-24T03:03:55.881Z,75.22
2019-03-24T03:06:24.111Z,75.33
2019-03-24T03:08:52.322Z,75.42
2019-03-24T03:11:20.554Z,75.45
2019-03-24T03:13:48.765Z,75.58
2019-03-24T03:16:16.994Z,75.25
2019-03-24T03:18:45.197Z,75.43
2019-03-24T03:21:13.422Z,75.39
2019-03-24T03:23:41.630Z,75.29
2019-03-24T03:26:09.847Z,75.37
2019-03-24T03:28:38.073Z,75.19
2019-03-24T03:31:06.279Z,75.40
2019-03-24T03:33:34.492Z,75.57
2019-03-24T03:36:02.709Z,75.31
2019-03-24T03:38:30.954Z,75.52
2019-03-24T03:40:59.506Z,75.46
2019-03-24T03:43:27.694Z,75.53
2019-03-24T03:45:55.907Z,75.44
2019-03-24T03:48:24.123Z,75.50
2019-03-24T03:50:52.338Z,75.62
2019-03-24T03:53:20.562Z,75.48
2019-03-24T03:55:48.775Z,75.49
2019-03-24T03:58:16.988Z,75.57
2019-03-24T04:00:45.193Z,75.40
2019-03-24T04:03:13.417Z,75.64
2019-03-24T04:05:41.639Z,75.58
2019-03-24T04:08:09.849Z,75.56
2019-03-24T04:10:38.104Z,75.54
2019-03-24T04:13:06.312Z,75.45
2019-03-24T04:15:34.542Z,75.42
2019-03-24T04:18:02.737Z,75.56
2019-03-24T04:20:30.934Z,75.42
2019-03-24T04:22:59.730Z,75.57
2019-03-24T04:25:27.937Z,75.70
2019-03-24T04:27:56.159Z,75.52
2019-03-24T04:30:24.371Z,75.85
2019-03-24T04:32:52.585Z,75.77
2019-03-24T04:35:20.799Z,75.87
2019-03-24T04:37:49.009Z,75.83
2019-03-24T04:40:17.221Z,75.56
2019-03-24T04:42:45.432Z,75.38
2019-03-24T04:45:13.654Z,75.46
2019-03-24T04:47:41.868Z,75.68
2019-03-24T04:50:10.081Z,75.90
2019-03-24T04:52:38.294Z,75.58
2019-03-24T04:55:07.005Z,75.76
2019-03-24T04:57:35.216Z,75.86
2019-03-24T05:00:07.378Z,76.19
2019-03-24T05:02:35.597Z,75.84
2019-03-24T05:05:05.353Z,75.95
2019-03-24T05:07:33.568Z,75.90
2019-03-24T05:10:02.142Z,75.79
2019-03-24T05:12:30.366Z,75.87
2019-03-24T05:14:58.616Z,75.73
2019-03-24T05:17:27.479Z,75.84
2019-03-24T05:19:55.952Z,75.78
2019-03-24T05:22:24.151Z,75.98
2019-03-24T05:24:52.375Z,76.01
2019-03-24T05:27:20.588Z,75.90
2019-03-24T05:29:48.838Z,75.89
2019-03-24T05:32:17.051Z,75.88
2019-03-24T05:34:45.274Z,76.11
2019-03-24T05:37:13.477Z,76.11
2019-03-24T05:39:41.706Z,76.25
2019-03-24T05:42:09.976Z,76.22
2019-03-24T05:44:38.318Z,76.10
2019-03-24T05:47:06.549Z,76.06
2019-03-24T05:49:34.768Z,76.04
2019-03-24T05:52:02.993Z,76.04
2019-03-24T05:54:31.224Z,76.32
2019-03-24T05:57:00.502Z,76.26
2019-03-24T05:59:28.711Z,76.31
2019-03-24T06:01:56.938Z,76.26
2019-03-24T06:04:25.168Z,76.15
2019-03-24T06:06:53.391Z,76.16
2019-03-24T06:09:21.594Z,76.29
2019-03-24T06:11:49.880Z,76.26
2019-03-24T06:14:18.101Z,76.31
2019-03-24T06:16:46.411Z,76.38
2019-03-24T06:19:14.628Z,76.50
2019-03-24T06:21:42.841Z,76.31
2019-03-24T06:24:11.085Z,76.19
2019-03-24T06:26:39.302Z,76.25
2019-03-24T06:29:07.535Z,76.20
2019-03-24T06:31:35.743Z,76.12
2019-03-24T06:34:03.961Z,75.99
2019-03-24T06:36:32.260Z,76.25
2019-03-24T06:39:00.726Z,76.18
2019-03-24T06:41:28.955Z,76.07
2019-03-24T06:43:57.173Z,75.49
2019-03-24T06:46:25.390Z,75.78
2019-03-24T06:48:53.633Z,75.53
2019-03-24T06:51:21.845Z,75.52
2019-03-24T06:53:50.072Z,75.38
2019-03-24T06:56:18.284Z,74.93
2019-03-24T06:58:46.541Z,74.55
2019-03-24T07:01:14.745Z,74.59
2019-03-24T07:03:42.967Z,74.14
2019-03-24T07:06:11.209Z,74.04
2019-03-24T07:08:39.418Z,73.63
2019-03-24T07:11:13.335Z,73.87
2019-03-24T07:13:37.567Z,73.84
2019-03-24T07:16:05.790Z,73.14
2019-03-24T07:18:34.021Z,72.97
2019-03-24T07:21:02.621Z,72.46
2019-03-24T07:23:31.028Z,72.67
2019-03-24T07:25:59.228Z,72.41
2019-03-24T07:28:27.454Z,72.50
2019-03-24T07:30:55.683Z,72.33
2019-03-24T07:33:23.898Z,72.29
2019-03-24T07:35:52.119Z,71.92
2019-03-24T07:38:20.339Z,71.94
2019-03-24T07:40:48.571Z,71.57
2019-03-24T07:43:16.793Z,71.38
2019-03-24T07:45:45.021Z,71.45
2019-03-24T07:48:18.951Z,71.42
2019-03-24T07:50:43.169Z,71.52
2019-03-24T07:53:11.423Z,71.01
2019-03-24T07:55:39.646Z,71.53
2019-03-24T07:58:07.867Z,70.48
2019-03-24T08:00:37.234Z,69.83
2019-03-24T08:03:05.514Z,70.06
2019-03-24T08:05:33.732Z,70.23
2019-03-24T08:08:01.957Z,69.17
2019-03-24T08:10:31.211Z,69.20
2019-03-24T08:12:59.421Z,68.89
2019-03-24T08:15:27.658Z,70.15
2019-03-24T08:17:55.848Z,69.63
2019-03-24T08:20:24.086Z,68.08
2019-03-24T08:22:52.312Z,67.33
2019-03-24T08:25:20.527Z,67.42
2019-03-24T08:27:48.763Z,67.34
2019-03-24T08:30:20.223Z,65.93
2019-03-24T08:32:48.447Z,66.54
2019-03-24T08:35:16.656Z,65.44
2019-03-24T08:37:44.876Z,67.63
2019-03-24T08:40:13.130Z,65.79
2019-03-24T08:42:41.336Z,65.25
2019-03-24T08:45:12.854Z,63.46
2019-03-24T08:47:41.058Z,63.46
2019-03-24T08:50:09.307Z,61.62
2019-03-24T08:52:37.540Z,61.87
2019-03-24T08:55:06.395Z,61.81
2019-03-24T08:57:34.610Z,61.54
2019-03-24T09:00:03.998Z,61.54
2019-03-24T09:02:32.505Z,60.03
2019-03-24T09:05:01.673Z,59.62
2019-03-24T09:07:30.050Z,60.41
2019-03-24T09:09:58.278Z,60.51
2019-03-24T09:12:26.497Z,58.35
2019-03-24T09:14:54.708Z,58.30
2019-03-24T09:17:22.991Z,57.86
2019-03-24T09:19:51.170Z,58.62
2019-03-24T09:22:19.394Z,59.07
2019-03-24T09:24:47.704Z,59.06
2019-03-24T09:27:15.909Z,58.71
2019-03-24T09:29:44.134Z,58.19
2019-03-24T09:32:12.355Z,57.29
2019-03-24T09:34:40.660Z,58.20
2019-03-24T09:37:08.897Z,57.58
2019-03-24T09:39:37.115Z,57.18
2019-03-24T09:42:05.364Z,55.97
2019-03-24T09:44:33.584Z,56.27
2019-03-24T09:47:02.534Z,56.03
2019-03-24T09:49:30.760Z,55.95
2019-03-24T09:51:58.971Z,55.20
2019-03-24T09:54:27.198Z,55.76
2019-03-24T09:56:55.481Z,56.00
2019-03-24T09:59:23.719Z,55.42
2019-03-24T10:01:51.932Z,56.38
2019-03-24T10:04:20.146Z,55.68
2019-03-24T10:06:48.368Z,54.67
2019-03-24T10:09:16.585Z,54.54
2019-03-24T10:11:44.805Z,52.03
2019-03-24T10:14:13.026Z,53.31
2019-03-24T10:16:41.277Z,53.08
2019-03-24T10:19:13.902Z,52.31
2019-03-24T10:21:39.430Z,53.25
2019-03-24T10:24:08.019Z,52.61
2019-03-24T10:26:36.346Z,53.09
2019-03-24T10:29:04.575Z,52.96
2019-03-24T10:31:32.793Z,52.08
2019-03-24T10:34:01.063Z,50.80
2019-03-24T10:36:29.281Z,51.00
2019-03-24T10:38:57.556Z,50.20
2019-03-24T10:41:25.780Z,50.29
2019-03-24T10:43:54.264Z,49.23
2019-03-24T10:46:22.474Z,49.24
2019-03-24T10:48:50.695Z,47.68
2019-03-24T10:51:18.917Z,48.52
2019-03-24T10:53:47.138Z,48.41
2019-03-24T10:56:15.350Z,49.14
2019-03-24T10:58:43.565Z,47.81
2019-03-24T11:01:11.816Z,47.25
2019-03-24T11:03:40.050Z,46.28
2019-03-24T11:06:08.415Z,44.80
2019-03-24T11:08:36.793Z,45.36
2019-03-24T11:11:05.018Z,45.37
2019-03-24T11:13:33.235Z,44.71
2019-03-24T11:16:01.450Z,42.86
2019-03-24T11:18:29.677Z,43.43
2019-03-24T11:20:57.891Z,42.08
2019-03-24T11:23:26.145Z,41.97
2019-03-24T11:25:54.360Z,41.81
2019-03-24T11:28:22.583Z,41.59
2019-03-24T11:30:50.803Z,42.23
2019-03-24T11:33:19.035Z,41.37
2019-03-24T11:35:47.272Z,42.11
2019-03-24T11:38:15.483Z,41.19
2019-03-24T11:40:43.705Z,39.81
2019-03-24T11:43:11.929Z,38.28
2019-03-24T11:45:40.151Z,38.75
2019-03-24T11:48:08.392Z,39.38
2019-03-24T11:50:36.642Z,39.02
2019-03-24T11:53:04.867Z,39.64
2019-03-24T11:55:33.102Z,37.16
2019-03-24T11:58:05.828Z,38.97
2019-03-24T12:00:35.620Z,38.42
2019-03-24T12:03:03.834Z,37.53
2019-03-24T12:05:33.099Z,35.53
2019-03-24T12:08:01.329Z,35.96
2019-03-24T12:10:29.547Z,36.55
2019-03-24T12:12:57.774Z,36.07
2019-03-24T12:15:26.008Z,36.85
2019-03-24T12:17:54.406Z,36.43
2019-03-24T12:20:22.624Z,35.90
2019-03-24T12:22:50.858Z,33.37
2019-03-24T12:25:19.077Z,32.77
2019-03-24T12:27:47.296Z,32.58
2019-03-24T12:30:15.596Z,33.13
2019-03-24T12:32:43.852Z,33.88
2019-03-24T12:35:12.495Z,33.11
2019-03-24T12:37:40.719Z,33.72
2019-03-24T12:40:09.768Z,34.18
2019-03-24T12:42:38.921Z,34.66
2019-03-24T12:45:07.675Z,32.20
2019-03-24T12:47:35.920Z,32.87
2019-03-24T12:50:09.284Z,31.87
2019-03-24T12:52:36.135Z,33.17
2019-03-24T12:55:05.098Z,32.54
2019-03-24T12:57:33.522Z,34.52
2019-03-24T13:00:01.765Z,31.27
2019-03-24T13:02:29.976Z,30.99
2019-03-24T13:04:58.192Z,31.68
2019-03-24T13:07:26.435Z,31.51
2019-03-24T13:09:54.646Z,31.55
2019-03-24T13:12:22.889Z,31.25
2019-03-24T13:14:51.090Z,31.94
2019-03-24T13:17:19.310Z,31.03
2019-03-24T13:19:49.220Z,31.53
2019-03-24T13:22:17.430Z,31.58
2019-03-24T13:24:45.671Z,30.61
2019-03-24T13:27:13.886Z,30.91
2019-03-24T13:29:42.103Z,31.38
2019-03-24T13:32:10.316Z,32.10
2019-03-24T13:34:38.526Z,32.06
2019-03-24T13:37:06.769Z,33.37
2019-03-24T13:39:34.991Z,33.17
2019-03-24T13:42:03.880Z,33.51
2019-03-24T13:44:32.094Z,33.35
2019-03-24T13:47:00.312Z,32.88
2019-03-24T13:49:28.536Z,33.01
2019-03-24T13:51:56.755Z,32.85
2019-03-24T13:54:24.986Z,32.15
2019-03-24T13:56:53.202Z,32.32
2019-03-24T13:59:21.819Z,32.50
2019-03-24T14:01:51.658Z,32.15
2019-03-24T14:04:19.895Z,33.21
2019-03-24T14:06:51.026Z,33.09
2019-03-24T14:09:19.289Z,33.25
2019-03-24T14:11:47.561Z,33.50
2019-03-24T14:14:15.778Z,33.72
2019-03-24T14:16:46.500Z,34.21
2019-03-24T14:19:13.944Z,34.84
2019-03-24T14:21:42.169Z,35.69
2019-03-24T14:24:10.417Z,35.29
2019-03-24T14:26:38.621Z,34.95
2019-03-24T14:29:06.841Z,33.49
2019-03-24T14:31:35.050Z,34.20
2019-03-24T14:34:04.330Z,34.25
2019-03-24T14:36:32.561Z,34.91
2019-03-24T14:39:00.789Z,35.17
2019-03-24T14:41:29.007Z,35.67
2019-03-24T14:43:57.224Z,36.77
2019-03-24T14:46:25.449Z,38.32
2019-03-24T14:48:53.679Z,38.96
2019-03-24T14:51:21.902Z,39.35
2019-03-24T14:53:50.121Z,39.35
2019-03-24T14:56:18.332Z,39.43
2019-03-24T14:58:46.557Z,40.05
2019-03-24T15:01:14.774Z,40.65
2019-03-24T15:03:43.007Z,40.58
2019-03-24T15:06:11.223Z,40.96
2019-03-24T15:08:39.446Z,41.71
2019-03-24T15:11:07.672Z,41.71
2019-03-24T15:13:35.905Z,42.23
2019-03-24T15:16:04.530Z,42.35
2019-03-24T15:18:32.757Z,41.66
2019-03-24T15:21:05.682Z,41.75
2019-03-24T15:23:30.989Z,40.92
2019-03-24T15:25:59.210Z,41.55
2019-03-24T15:28:27.424Z,41.33
2019-03-24T15:30:55.659Z,41.62
2019-03-24T15:33:23.888Z,41.83
2019-03-24T15:35:52.102Z,42.38
2019-03-24T15:38:20.343Z,43.05
2019-03-24T15:40:49.534Z,43.60
2019-03-24T15:43:17.900Z,43.39
2019-03-24T15:45:46.197Z,43.19
2019-03-24T15:48:14.418Z,43.13
2019-03-24T15:50:42.658Z,43.36
2019-03-24T15:53:10.873Z,43.89
2019-03-24T15:55:39.101Z,44.44
2019-03-24T15:58:07.326Z,44.65
2019-03-24T16:00:47.698Z,45.25
2019-03-24T16:03:15.901Z,44.52
2019-03-24T16:05:44.131Z,44.31
2019-03-24T16:08:12.348Z,44.53
2019-03-24T16:10:40.568Z,44.49
2019-03-24T16:13:08.886Z,45.03
2019-03-24T16:15:37.093Z,45.90
2019-03-24T16:18:05.330Z,46.47
2019-03-24T16:20:33.538Z,46.94
2019-03-24T16:23:01.760Z,47.32
2019-03-24T16:25:30.226Z,47.47
2019-03-24T16:27:58.450Z,47.72
2019-03-24T16:30:26.671Z,48.42
2019-03-24T16:32:54.963Z,48.95
2019-03-24T16:35:23.178Z,49.18
2019-03-24T16:37:51.439Z,49.94
2019-03-24T16:40:19.780Z,50.11
2019-03-24T16:42:48.003Z,50.78
2019-03-24T16:45:16.224Z,50.81
2019-03-24T16:47:44.472Z,51.43
2019-03-24T16:50:12.704Z,51.49
2019-03-24T16:52:40.914Z,51.97
2019-03-24T16:55:09.156Z,51.53
2019-03-24T16:57:37.360Z,51.77
2019-03-24T17:00:08.544Z,52.28
2019-03-24T17:02:36.123Z,52.38
2019-03-24T17:05:09.237Z,50.96
2019-03-24T17:07:37.466Z,52.93
2019-03-24T17:10:06.623Z,53.61
2019-03-24T17:12:35.600Z,54.18
2019-03-24T17:15:05.862Z,54.57
2019-03-24T17:17:34.082Z,55.01
2019-03-24T17:20:02.299Z,55.37
2019-03-24T17:22:30.524Z,55.58
2019-03-24T17:24:58.739Z,55.76
2019-03-24T17:27:26.963Z,56.10
2019-03-24T17:29:55.299Z,56.62
2019-03-24T17:32:23.530Z,56.36
2019-03-24T17:34:51.792Z,57.00
2019-03-24T17:37:20.042Z,57.43
2019-03-24T17:39:48.269Z,57.57
2019-03-24T17:42:16.564Z,57.98
2019-03-24T17:44:46.183Z,58.48
2019-03-24T17:47:14.535Z,58.68
2019-03-24T17:49:42.782Z,58.78
2019-03-24T17:52:11.000Z,59.35
2019-03-24T17:54:39.226Z,59.66
2019-03-24T17:57:07.482Z,59.75
2019-03-24T17:59:35.709Z,59.92
2019-03-24T18:02:14.006Z,60.06
2019-03-24T18:04:33.856Z,60.33
2019-03-24T18:07:02.068Z,60.54
2019-03-24T18:09:31.111Z,60.20
2019-03-24T18:11:59.390Z,59.98
2019-03-24T18:14:27.604Z,59.52
2019-03-24T18:16:55.820Z,59.33
2019-03-24T18:19:24.051Z,59.56
2019-03-24T18:21:52.276Z,59.22
2019-03-24T18:24:20.499Z,58.89
2019-03-24T18:26:48.789Z,58.92
2019-03-24T18:29:17.018Z,58.41
2019-03-24T18:31:45.227Z,57.92
2019-03-24T18:34:13.434Z,58.01
2019-03-24T18:36:41.651Z,57.88
2019-03-24T18:39:09.861Z,57.41
2019-03-24T18:41:38.086Z,57.37
2019-03-24T18:44:06.304Z,57.37
2019-03-24T18:46:34.538Z,57.31
2019-03-24T18:49:02.775Z,57.51
2019-03-24T18:51:30.981Z,56.99
2019-03-24T18:53:59.196Z,57.38
2019-03-24T18:56:27.473Z,57.84
2019-03-24T18:58:55.704Z,57.85
2019-03-24T19:01:23.922Z,57.79
2019-03-24T19:03:52.137Z,58.64
2019-03-24T19:06:20.361Z,58.41
2019-03-24T19:08:48.570Z,58.61
2019-03-24T19:11:16.790Z,58.86
2019-03-24T19:13:45.035Z,58.14
2019-03-24T19:16:13.232Z,57.72
2019-03-24T19:18:41.454Z,57.48
2019-03-24T19:21:09.664Z,57.61
2019-03-24T19:23:37.912Z,57.67
2019-03-24T19:26:06.622Z,57.25
2019-03-24T19:28:34.847Z,56.96
2019-03-24T19:31:03.069Z,56.70
2019-03-24T19:33:31.332Z,56.48
2019-03-24T19:35:59.545Z,56.42
2019-03-24T19:38:27.778Z,56.11
2019-03-24T19:40:56.014Z,56.41
2019-03-24T19:43:24.236Z,56.61
2019-03-24T19:45:52.446Z,56.64
2019-03-24T19:48:20.707Z,56.56
2019-03-24T19:50:48.930Z,56.73
2019-03-24T19:53:17.152Z,56.72
2019-03-24T19:55:45.375Z,56.66
2019-03-24T19:58:13.577Z,56.69
2019-03-24T20:00:41.793Z,56.62
2019-03-24T20:03:10.021Z,56.79
2019-03-24T20:05:38.230Z,56.49
2019-03-24T20:08:06.846Z,56.42
2019-03-24T20:10:35.067Z,56.68
2019-03-24T20:13:03.303Z,56.78
2019-03-24T20:15:31.515Z,56.93
2019-03-24T20:17:59.743Z,56.75
2019-03-24T20:20:27.970Z,56.97
2019-03-24T20:22:57.099Z,56.85
2019-03-24T20:25:25.796Z,57.35
2019-03-24T20:27:54.005Z,57.30
2019-03-24T20:30:22.246Z,57.46
2019-03-24T20:32:50.435Z,57.90
2019-03-24T20:35:18.657Z,58.31
2019-03-24T20:37:46.868Z,58.52
2019-03-24T20:40:15.148Z,58.83
2019-03-24T20:42:43.366Z,58.83
2019-03-24T20:45:11.577Z,58.97
2019-03-24T20:47:39.785Z,59.29
2019-03-24T20:50:08.461Z,59.47
2019-03-24T20:52:37.101Z,59.70
2019-03-24T20:55:06.960Z,59.58
2019-03-24T20:57:35.171Z,59.82
2019-03-24T21:00:03.525Z,59.58
2019-03-24T21:02:31.750Z,59.97
2019-03-24T21:04:59.964Z,59.97
2019-03-24T21:07:28.182Z,60.08
2019-03-24T21:09:56.393Z,60.02
2019-03-24T21:12:24.609Z,60.14
2019-03-24T21:14:52.877Z,60.32
2019-03-24T21:17:21.605Z,60.50
2019-03-24T21:19:50.095Z,60.39
2019-03-24T21:22:18.307Z,60.55
2019-03-24T21:24:46.516Z,60.43
2019-03-24T21:27:14.732Z,60.55
2019-03-24T21:29:42.942Z,60.56
2019-03-24T21:32:11.162Z,60.63
2019-03-24T21:34:39.402Z,60.66
2019-03-24T21:37:07.604Z,60.58
2019-03-24T21:39:35.840Z,60.51
2019-03-24T21:42:04.060Z,60.36
2019-03-24T21:44:32.270Z,60.58
2019-03-24T21:47:00.486Z,60.63
2019-03-24T21:49:28.708Z,60.65
2019-03-24T21:51:56.920Z,61.05
2019-03-24T21:54:25.153Z,61.05
2019-03-24T21:56:53.341Z,61.03
2019-03-24T21:59:21.563Z,61.40
2019-03-24T22:01:49.772Z,61.34
2019-03-24T22:04:18.000Z,61.55
2019-03-24T22:06:46.206Z,61.65
2019-03-24T22:09:14.415Z,61.62
2019-03-24T22:11:42.640Z,61.93
2019-03-24T22:14:10.859Z,62.11
2019-03-24T22:16:39.063Z,62.19
2019-03-24T22:19:07.821Z,62.23
2019-03-24T22:21:36.182Z,62.40
2019-03-24T22:24:04.396Z,62.72
2019-03-24T22:26:32.616Z,62.88
2019-03-24T22:29:00.832Z,63.05
2019-03-24T22:31:29.080Z,62.87
2019-03-24T22:33:57.315Z,62.94
2019-03-24T22:36:26.668Z,62.85
2019-03-24T22:38:54.867Z,62.98
2019-03-24T22:41:23.081Z,62.94
2019-03-24T22:43:51.301Z,62.72
2019-03-24T22:46:21.192Z,62.73
2019-03-24T22:48:49.444Z,63.01
2019-03-24T22:51:17.653Z,63.00
2019-03-24T22:53:45.878Z,63.11
2019-03-24T22:56:14.092Z,63.06
2019-03-24T22:58:42.314Z,63.20
2019-03-24T23:01:10.817Z,63.09
2019-03-24T23:03:39.049Z,63.07
2019-03-24T23:06:08.224Z,63.20
2019-03-24T23:08:36.442Z,63.76
2019-03-24T23:11:04.693Z,63.58
2019-03-24T23:13:32.942Z,63.96
2019-03-24T23:16:01.204Z,64.39
2019-03-24T23:18:29.418Z,64.34
2019-03-24T23:20:57.658Z,64.76
2019-03-24T23:23:25.877Z,64.67
2019-03-24T23:25:54.085Z,64.63
2019-03-24T23:28:22.327Z,64.50
2019-03-24T23:30:50.544Z,64.47
2019-03-24T23:33:18.753Z,64.28
2019-03-24T23:35:47.000Z,64.26
2019-03-24T23:38:15.219Z,64.14
2019-03-24T23:40:43.435Z,64.13
2019-03-24T23:43:11.643Z,63.91
2019-03-24T23:45:39.873Z,63.54
2019-03-24T23:48:08.635Z,63.48
2019-03-24T23:50:36.857Z,63.51
2019-03-24T23:53:05.072Z,63.28
2019-03-24T23:55:33.300Z,63.51
2019-03-24T23:58:01.533Z,63.63
